Terminal Aerodrome Forecast
Issued by NWS

Home | Current Version | Previous Version | Graphics & Text | Print | Product List | Glossary On
Versions: 1 2 3 4 5 6 7 8 9 10 11 12 13 14 15 16 17 18 19 20
000
FTUS43 KOAX 241400 AAA
TAFCDR
TAF AMD
KCDR 241400Z 2414/2512 23012KT P6SM SKC
     FM241700 25013G22KT P6SM SCT100
     FM242000 28012G23KT P6SM VCTS SCT100CB
     FM250200 22013KT P6SM SCT100=

USA.gov is the U.S. government's official web portal to all federal, state and local government web resources and services.